Time;durP1;ratioP1;P1;durP2;ratioP2;P2;SDS_P1;SDS_P2;PMS_P1;PMS_P2;Temp;Humidity;BMP_temperature;BMP_pressure;BME280_temperature;BME280_humidity;BME280_pressure;Samples;Min_cycle;Max_cycle;Signal;HPM_P1;HPM_P2
2022/09/11 00:01:28;;;;;;;26.25;14.10;;;17.00;99.90;;;;;;4183029;28;20225;-92
2022/09/11 00:03:30;;;;;;;24.73;13.20;;;17.00;99.90;;;;;;4182835;28;20312;-92
2022/09/11 00:05:31;;;;;;;24.60;13.32;;;17.00;99.90;;;;;;4166434;28;20282;-93
2022/09/11 00:07:31;;;;;;;29.98;14.35;;;17.00;99.90;;;;;;4166457;28;20172;-92
2022/09/11 00:09:32;;;;;;;29.08;13.40;;;17.00;99.90;;;;;;4166363;28;20176;-92
2022/09/11 00:11:39;;;;;;;27.20;13.15;;;16.90;99.90;;;;;;4166595;28;20707;-92
2022/09/11 00:13:40;;;;;;;28.02;12.40;;;16.90;99.90;;;;;;4166485;28;20180;-94
2022/09/11 00:15:43;;;;;;;18.33;12.77;;;16.90;99.90;;;;;;4182900;28;20175;-93
2022/09/11 00:17:44;;;;;;;23.08;12.55;;;16.90;99.90;;;;;;4182849;28;20305;-93
2022/09/11 00:19:44;;;;;;;21.98;13.35;;;16.90;99.90;;;;;;4182913;28;20168;-93
2022/09/11 00:21:46;;;;;;;19.15;12.43;;;16.90;99.90;;;;;;4165941;28;20207;-93
2022/09/11 00:23:50;;;;;;;19.10;12.50;;;16.90;99.90;;;;;;4182925;28;20693;-92
2022/09/11 00:25:51;;;;;;;20.92;12.50;;;16.90;99.90;;;;;;4166204;28;20670;-93
2022/09/11 00:27:52;;;;;;;19.88;11.98;;;16.90;99.90;;;;;;4166033;28;20183;-92
2022/09/11 00:29:53;;;;;;;19.08;11.80;;;16.90;99.90;;;;;;4166309;28;20659;-93
2022/09/11 00:31:55;;;;;;;21.92;11.75;;;16.90;99.90;;;;;;4166186;28;20287;-92
2022/09/11 00:33:56;;;;;;;23.02;11.70;;;17.00;99.90;;;;;;4166073;28;20268;-93
2022/09/11 00:36:06;;;;;;;19.67;11.35;;;16.90;99.90;;;;;;4182774;28;20168;-94
2022/09/11 00:38:10;;;;;;;20.35;11.80;;;16.90;99.90;;;;;;4182698;28;20560;-92
2022/09/11 00:40:11;;;;;;;16.88;11.15;;;16.80;99.90;;;;;;4165919;28;20215;-93
2022/09/11 00:42:12;;;;;;;19.95;12.15;;;16.80;99.90;;;;;;4165646;28;20200;-93
2022/09/11 00:44:14;;;;;;;18.90;11.43;;;16.80;99.90;;;;;;4166120;28;20549;-92
2022/09/11 00:46:15;;;;;;;17.90;11.95;;;16.80;99.90;;;;;;4165939;28;20187;-91
2022/09/11 00:48:21;;;;;;;30.48;13.02;;;16.80;99.90;;;;;;4165990;28;20176;-93
2022/09/11 00:50:25;;;;;;;19.80;12.52;;;16.80;99.90;;;;;;4182495;28;20187;-92
2022/09/11 00:52:34;;;;;;;21.70;13.07;;;16.80;99.90;;;;;;4182478;28;20655;-91
2022/09/11 00:54:55;;;;;;;20.08;12.55;;;16.80;99.90;;;;;;4182379;28;20226;-93
2022/09/11 00:57:00;;;;;;;20.95;12.68;;;16.80;99.90;;;;;;4182303;28;20255;-92
2022/09/11 00:59:01;;;;;;;22.95;12.45;;;16.80;99.90;;;;;;4182369;28;20258;-93
2022/09/11 01:01:02;;;;;;;25.83;13.25;;;16.80;99.90;;;;;;4182221;28;20659;-92
2022/09/11 01:03:04;;;;;;;25.17;12.88;;;16.90;99.90;;;;;;4165542;28;20295;-93
2022/09/11 01:05:06;;;;;;;21.67;13.48;;;16.90;99.90;;;;;;4165741;28;20243;-92
2022/09/11 01:07:09;;;;;;;28.63;13.85;;;16.80;99.90;;;;;;4182044;28;20171;-92
2022/09/11 01:09:10;;;;;;;24.38;13.48;;;16.80;99.90;;;;;;4180883;28;20167;-92
2022/09/11 01:11:34;;;;;;;24.02;14.20;;;16.70;99.90;;;;;;4182049;28;20230;-92
2022/09/11 01:13:57;;;;;;;22.83;13.50;;;16.70;99.90;;;;;;4165493;28;20641;-92
2022/09/11 01:16:19;;;;;;;19.45;12.95;;;16.70;99.90;;;;;;4165672;28;20179;-93
2022/09/11 01:18:31;;;;;;;21.40;12.63;;;16.80;99.90;;;;;;4165393;28;20183;-95
2022/09/11 01:20:51;;;;;;;23.35;13.13;;;16.80;99.90;;;;;;4165582;28;20576;-92
2022/09/11 01:23:16;;;;;;;19.67;12.23;;;16.80;99.90;;;;;;4165546;28;20582;-92
2022/09/11 01:25:45;;;;;;;19.23;12.40;;;16.70;99.90;;;;;;4165254;28;20279;-93
2022/09/11 01:28:01;;;;;;;20.52;12.65;;;16.60;99.90;;;;;;4181686;28;20262;-91
2022/09/11 01:30:21;;;;;;;19.45;12.45;;;16.60;99.90;;;;;;4165196;28;20602;-94
2022/09/11 01:32:34;;;;;;;25.60;13.30;;;16.70;99.90;;;;;;4165437;28;20226;-92
2022/09/11 01:34:57;;;;;;;17.35;12.05;;;16.70;99.90;;;;;;4181926;28;20648;-93
2022/09/11 01:37:08;;;;;;;20.27;11.85;;;16.70;99.90;;;;;;4165437;28;20180;-92
2022/09/11 01:39:09;;;;;;;22.65;12.10;;;16.60;99.90;;;;;;4165329;28;20192;-93
2022/09/11 01:41:22;;;;;;;20.63;13.40;;;16.40;99.90;;;;;;4165094;28;20192;-92
2022/09/11 01:43:26;;;;;;;24.77;14.15;;;16.40;99.90;;;;;;4164748;28;20730;-92
2022/09/11 01:45:30;;;;;;;22.85;14.15;;;16.40;99.90;;;;;;4165817;28;20184;-92
2022/09/11 01:47:33;;;;;;;26.30;14.02;;;16.40;99.90;;;;;;4165007;28;20176;-93
2022/09/11 01:49:40;;;;;;;19.75;13.68;;;16.40;99.90;;;;;;4181537;28;20172;-93
2022/09/11 01:51:41;;;;;;;25.55;13.93;;;16.40;99.90;;;;;;4181223;28;20183;-92
2022/09/11 01:53:46;;;;;;;24.00;13.38;;;16.40;99.90;;;;;;4164801;28;20637;-93
2022/09/11 01:56:04;;;;;;;23.95;14.00;;;16.40;99.90;;;;;;4164987;28;20691;-94
2022/09/11 01:58:17;;;;;;;22.90;14.73;;;16.30;99.90;;;;;;4165383;28;20175;-93
2022/09/11 02:00:18;;;;;;;20.00;13.93;;;16.20;99.90;;;;;;4181202;28;20190;-92
2022/09/11 02:02:41;;;;;;;23.38;14.35;;;16.10;99.90;;;;;;4165567;28;20214;-93
2022/09/11 02:04:50;;;;;;;27.95;15.20;;;16.10;99.90;;;;;;4181273;28;20533;-92
2022/09/11 02:07:07;;;;;;;20.38;14.32;;;16.10;99.90;;;;;;4181284;28;20167;-92
2022/09/11 02:09:13;;;;;;;19.15;13.05;;;16.20;99.90;;;;;;4181214;28;20167;-92
2022/09/11 02:11:15;;;;;;;21.73;13.85;;;16.30;99.90;;;;;;4181025;28;20683;-93
2022/09/11 02:13:22;;;;;;;26.90;14.57;;;16.40;99.90;;;;;;4181286;28;20172;-93
2022/09/11 02:15:30;;;;;;;20.90;14.07;;;16.30;99.90;;;;;;4164631;28;20217;-93
2022/09/11 02:17:48;;;;;;;25.67;14.80;;;16.30;99.90;;;;;;4164660;28;20207;-93
2022/09/11 02:19:53;;;;;;;19.58;13.15;;;16.30;99.90;;;;;;4180904;28;20179;-93
2022/09/11 02:21:57;;;;;;;19.75;13.77;;;16.30;99.90;;;;;;4181076;28;20182;-93
2022/09/11 02:23:59;;;;;;;22.98;14.32;;;16.30;99.90;;;;;;4181250;28;20187;-93
2022/09/11 02:26:01;;;;;;;18.30;12.63;;;16.20;99.90;;;;;;4164402;28;20164;-93
2022/09/11 02:28:02;;;;;;;16.35;11.23;;;16.20;99.90;;;;;;4181041;28;20171;-93
2022/09/11 02:30:03;;;;;;;18.00;12.85;;;16.10;99.90;;;;;;4181235;28;20173;-94
2022/09/11 02:32:09;;;;;;;22.20;13.43;;;16.10;99.90;;;;;;4164834;28;20227;-93
2022/09/11 02:34:13;;;;;;;18.63;12.70;;;16.20;99.90;;;;;;4164871;28;20641;-93
2022/09/11 02:36:35;;;;;;;22.02;12.95;;;16.10;99.90;;;;;;4164509;28;20234;-92
2022/09/11 02:38:54;;;;;;;19.27;14.07;;;15.90;99.90;;;;;;4180703;28;20199;-94
2022/09/11 02:41:13;;;;;;;22.88;13.80;;;15.70;99.90;;;;;;4164170;28;20199;-93
2022/09/11 02:43:34;;;;;;;21.55;15.55;;;15.80;99.90;;;;;;4164207;28;20356;-94
2022/09/11 02:45:53;;;;;;;22.42;14.65;;;15.80;99.90;;;;;;4164170;28;20176;-93
2022/09/11 02:48:31;;;;;;;27.10;16.30;;;15.90;99.90;;;;;;4164286;28;20172;-93
2022/09/11 02:51:09;;;;;;;28.88;16.95;;;16.00;99.90;;;;;;4180654;28;20191;-93
2022/09/11 02:53:25;;;;;;;27.10;15.18;;;16.10;99.90;;;;;;4164354;28;20180;-92
2022/09/11 02:55:43;;;;;;;24.92;16.20;;;16.10;99.90;;;;;;4164412;28;20513;-93
2022/09/11 02:57:49;;;;;;;32.05;17.65;;;16.10;99.90;;;;;;4164625;28;20168;-93
2022/09/11 02:59:59;;;;;;;32.92;17.40;;;16.10;99.90;;;;;;4164386;28;20226;-93
2022/09/11 03:02:01;;;;;;;23.33;14.80;;;16.00;99.90;;;;;;4163985;28;20306;-94
2022/09/11 03:04:02;;;;;;;24.08;15.35;;;16.10;99.90;;;;;;4164719;28;20652;-93
2022/09/11 03:06:03;;;;;;;20.95;14.07;;;16.10;99.90;;;;;;4180897;28;20167;-93
2022/09/11 03:08:04;;;;;;;30.85;17.65;;;16.10;99.90;;;;;;4164383;28;20629;-93
2022/09/11 03:10:07;;;;;;;24.20;16.45;;;16.00;99.90;;;;;;4164119;28;20176;-93
2022/09/11 03:12:09;;;;;;;32.33;18.17;;;16.10;99.90;;;;;;4164107;28;20637;-93
2022/09/11 03:14:11;;;;;;;30.65;19.73;;;16.10;99.90;;;;;;4164134;28;20736;-92
2022/09/11 03:16:13;;;;;;;28.40;16.25;;;16.00;99.90;;;;;;4164395;28;20238;-93
2022/09/11 03:18:14;;;;;;;24.52;16.95;;;16.10;99.90;;;;;;4180560;28;20176;-93
2022/09/11 03:20:15;;;;;;;25.73;16.10;;;16.10;99.90;;;;;;4163883;28;20188;-92
2022/09/11 03:22:16;;;;;;;33.58;17.73;;;16.10;99.90;;;;;;4164185;28;20226;-92
2022/09/11 03:24:17;;;;;;;25.13;17.20;;;16.10;99.90;;;;;;4164417;28;20188;-94
2022/09/11 03:26:19;;;;;;;29.88;18.80;;;16.00;99.90;;;;;;4164227;28;20165;-93
2022/09/11 03:28:22;;;;;;;32.67;21.17;;;16.00;99.90;;;;;;4164452;28;20181;-94
2022/09/11 03:30:23;;;;;;;33.60;20.48;;;16.00;99.90;;;;;;4180670;28;20187;-93
2022/09/11 03:32:24;;;;;;;41.92;19.92;;;16.10;99.90;;;;;;4165590;28;20568;-92
2022/09/11 03:34:25;;;;;;;53.83;18.55;;;16.10;99.90;;;;;;4167236;28;20172;-93
2022/09/11 03:36:26;;;;;;;33.38;17.38;;;16.10;99.90;;;;;;4166889;28;20691;-94
2022/09/11 03:38:28;;;;;;;32.55;15.77;;;16.10;99.90;;;;;;4166607;28;20172;-93
2022/09/11 03:40:28;;;;;;;26.88;16.13;;;16.10;99.90;;;;;;4167060;28;20274;-94
2022/09/11 03:42:32;;;;;;;29.30;15.00;;;16.10;99.90;;;;;;4183478;28;20307;-93
2022/09/11 03:44:33;;;;;;;44.85;14.43;;;16.10;99.90;;;;;;4167135;28;20195;-93
2022/09/11 03:46:34;;;;;;;126.95;13.18;;;16.20;99.90;;;;;;4167069;28;20200;-92
2022/09/11 03:48:35;;;;;;;272.25;16.25;;;16.20;99.90;;;;;;4167252;28;20199;-92
2022/09/11 03:50:36;;;;;;;236.27;14.65;;;16.00;99.90;;;;;;4166685;28;20196;-94
2022/09/11 03:52:37;;;;;;;192.93;15.48;;;15.80;99.90;;;;;;4183392;28;20610;-93
2022/09/11 03:54:39;;;;;;;151.40;13.88;;;15.70;99.90;;;;;;4166691;28;20176;-94
2022/09/11 03:56:41;;;;;;;102.25;12.95;;;15.70;99.90;;;;;;4183417;28;20183;-93
2022/09/11 03:58:43;;;;;;;45.00;12.85;;;15.60;99.90;;;;;;4167012;28;20616;-92
2022/09/11 04:00:46;;;;;;;58.83;11.70;;;15.60;99.90;;;;;;4166747;28;20192;-92
2022/09/11 04:02:48;;;;;;;34.25;11.35;;;15.60;99.90;;;;;;4166698;28;20200;-94
2022/09/11 04:05:02;;;;;;;36.45;11.40;;;15.60;99.90;;;;;;4168188;28;20176;-93
2022/09/11 04:07:05;;;;;;;198.45;14.13;;;15.60;99.90;;;;;;4166741;28;20215;-93
2022/09/11 04:09:07;;;;;;;90.78;12.73;;;15.60;99.90;;;;;;4166887;28;20168;-93
2022/09/11 04:11:10;;;;;;;63.70;12.50;;;15.60;99.90;;;;;;4166272;28;20246;-92
2022/09/11 04:13:11;;;;;;;91.13;12.23;;;15.60;99.90;;;;;;4182923;28;20178;-92
2022/09/11 04:15:12;;;;;;;83.80;11.80;;;15.60;99.90;;;;;;4183081;28;20203;-93
2022/09/11 04:17:13;;;;;;;90.20;12.18;;;15.50;99.90;;;;;;4166558;28;20243;-93
2022/09/11 04:19:13;;;;;;;79.32;11.27;;;15.40;99.90;;;;;;4166891;28;20195;-93
2022/09/11 04:21:17;;;;;;;42.20;11.00;;;15.40;99.90;;;;;;4182841;28;20271;-93
2022/09/11 04:23:22;;;;;;;36.47;11.00;;;15.50;99.90;;;;;;4166759;28;20215;-92
2022/09/11 04:25:23;;;;;;;40.25;11.20;;;15.50;99.90;;;;;;4183023;28;20171;-92
2022/09/11 04:27:26;;;;;;;64.93;10.55;;;15.50;99.90;;;;;;4166436;28;20210;-93
2022/09/11 04:29:27;;;;;;;30.15;10.95;;;15.50;99.90;;;;;;4166493;28;20653;-93
2022/09/11 04:31:29;;;;;;;115.55;11.32;;;15.50;99.90;;;;;;4166177;28;20289;-93
2022/09/11 04:33:30;;;;;;;56.88;10.77;;;15.50;99.90;;;;;;4182762;28;20176;-92
2022/09/11 04:35:35;;;;;;;93.03;10.95;;;15.50;99.90;;;;;;4166363;28;20176;-94
2022/09/11 04:37:36;;;;;;;34.53;10.20;;;15.40;99.90;;;;;;4182816;28;20179;-94
2022/09/11 04:39:37;;;;;;;61.67;11.02;;;15.40;99.90;;;;;;4182643;28;20262;-93
2022/09/11 04:41:38;;;;;;;51.38;10.80;;;15.40;99.90;;;;;;4165775;28;20556;-93
2022/09/11 04:43:40;;;;;;;87.30;11.80;;;15.40;99.90;;;;;;4165783;28;20608;-93
2022/09/11 04:45:42;;;;;;;235.57;13.60;;;15.40;99.90;;;;;;4182593;28;20194;-94
2022/09/11 04:47:45;;;;;;;105.57;12.80;;;15.40;99.90;;;;;;4182594;28;20203;-94
2022/09/11 04:49:47;;;;;;;98.78;12.88;;;15.40;99.90;;;;;;4165994;28;20173;-95
2022/09/11 04:51:48;;;;;;;42.70;12.02;;;15.40;99.90;;;;;;4165869;28;20200;-93
2022/09/11 04:53:54;;;;;;;91.93;15.00;;;15.50;99.90;;;;;;4166310;28;20169;-94
2022/09/11 04:56:06;;;;;;;71.78;14.32;;;15.50;99.90;;;;;;4182393;28;20701;-94
2022/09/11 04:58:13;;;;;;;47.50;14.00;;;15.60;99.90;;;;;;4182472;28;20168;-94
2022/09/11 05:00:15;;;;;;;30.67;12.35;;;15.60;99.90;;;;;;4182419;28;20171;-94
2022/09/11 05:02:15;;;;;;;18.88;12.50;;;15.60;99.90;;;;;;4166015;28;20242;-93
2022/09/11 05:04:20;;;;;;;59.95;13.23;;;15.70;99.90;;;;;;4166431;28;20633;-94
2022/09/11 05:06:22;;;;;;;28.25;12.13;;;15.70;99.90;;;;;;4165838;28;20175;-94
2022/09/11 05:08:25;;;;;;;46.28;12.73;;;15.50;99.90;;;;;;4165973;28;20682;-94
2022/09/11 05:10:27;;;;;;;63.42;12.90;;;15.50;99.90;;;;;;4165744;28;20191;-93
2022/09/11 05:12:30;;;;;;;50.10;12.02;;;15.50;99.90;;;;;;4165627;28;20168;-94
2022/09/11 05:14:31;;;;;;;38.45;12.18;;;15.40;99.90;;;;;;4165643;28;20176;-93
2022/09/11 05:16:33;;;;;;;92.93;12.65;;;15.40;99.90;;;;;;4182011;28;20266;-95
2022/09/11 05:18:35;;;;;;;57.90;12.65;;;15.50;99.90;;;;;;4181919;28;20168;-94
2022/09/11 05:20:38;;;;;;;73.35;12.70;;;15.50;99.90;;;;;;4181838;28;20196;-93
2022/09/11 05:22:42;;;;;;;62.25;12.43;;;15.40;99.90;;;;;;4181941;28;20266;-93
2022/09/11 05:24:43;;;;;;;124.88;13.32;;;15.50;99.90;;;;;;4165447;28;20207;-94
2022/09/11 05:26:44;;;;;;;137.20;14.07;;;15.50;99.90;;;;;;4181734;28;20171;-94
2022/09/11 05:28:47;;;;;;;244.73;14.70;;;15.50;99.90;;;;;;4181728;28;20160;-93
2022/09/11 05:30:47;;;;;;;132.82;14.98;;;15.40;99.90;;;;;;4181621;28;20195;-94
2022/09/11 05:32:53;;;;;;;72.00;13.65;;;15.40;99.90;;;;;;4181611;28;20168;-94
2022/09/11 05:34:54;;;;;;;112.55;14.38;;;15.50;99.90;;;;;;4181633;28;20203;-92
2022/09/11 05:37:01;;;;;;;123.15;14.43;;;15.50;99.90;;;;;;4165327;28;20635;-95
2022/09/11 05:39:03;;;;;;;162.98;14.85;;;15.50;99.90;;;;;;4165456;28;20221;-94
2022/09/11 05:41:08;;;;;;;50.65;12.90;;;15.60;99.90;;;;;;4181747;28;20198;-93
2022/09/11 05:43:11;;;;;;;55.92;13.80;;;15.70;99.90;;;;;;4181541;28;20207;-94
2022/09/11 05:45:12;;;;;;;104.45;13.80;;;15.70;99.90;;;;;;4165250;28;20211;-94
2022/09/11 05:47:14;;;;;;;72.25;14.05;;;15.70;99.90;;;;;;4181396;28;20175;-94
2022/09/11 05:49:18;;;;;;;85.90;13.90;;;15.70;99.90;;;;;;4165187;28;20152;-94
2022/09/11 05:51:20;;;;;;;74.05;14.05;;;15.80;99.90;;;;;;4165006;28;20198;-94
2022/09/11 05:53:22;;;;;;;29.05;11.73;;;15.80;99.90;;;;;;4165078;28;20611;-94
2022/09/11 05:55:23;;;;;;;119.65;14.30;;;15.80;99.90;;;;;;4164605;28;20195;-94
2022/09/11 05:57:24;;;;;;;55.97;13.05;;;15.90;99.90;;;;;;4181455;28;20178;-94
2022/09/11 05:59:26;;;;;;;96.82;13.55;;;16.00;99.90;;;;;;4181835;28;20175;-93
2022/09/11 06:01:27;;;;;;;75.60;13.73;;;16.00;99.90;;;;;;4164863;28;20187;-94
2022/09/11 06:03:39;;;;;;;114.30;14.40;;;16.10;99.90;;;;;;4166400;28;20307;-93
2022/09/11 06:05:40;;;;;;;73.32;14.60;;;16.10;99.90;;;;;;4181823;28;20178;-94
2022/09/11 06:07:41;;;;;;;75.20;13.38;;;16.20;99.90;;;;;;4165096;28;20278;-94
2022/09/11 06:09:44;;;;;;;98.63;14.38;;;16.20;99.90;;;;;;4164748;28;20263;-93
2022/09/11 06:11:45;;;;;;;75.22;12.52;;;16.40;99.90;;;;;;4164744;28;20231;-93
2022/09/11 06:13:46;;;;;;;36.22;12.60;;;16.60;99.90;;;;;;4164801;28;20632;-94
2022/09/11 06:15:48;;;;;;;97.97;12.43;;;16.50;99.90;;;;;;4181271;28;20802;-94
2022/09/11 06:17:49;;;;;;;16.70;11.82;;;16.50;99.90;;;;;;4181370;28;20175;-93
2022/09/11 06:19:50;;;;;;;16.58;11.65;;;16.50;99.90;;;;;;4164901;28;20160;-93
2022/09/11 06:21:51;;;;;;;20.67;12.32;;;16.50;99.90;;;;;;4164847;28;20684;-93
2022/09/11 06:24:05;;;;;;;22.35;12.20;;;16.50;99.90;;;;;;4166627;28;20203;-94
2022/09/11 06:26:11;;;;;;;46.35;13.38;;;16.60;99.90;;;;;;4181347;28;20174;-92
2022/09/11 06:28:14;;;;;;;24.67;12.73;;;16.60;99.90;;;;;;4181126;28;20172;-94
2022/09/11 06:30:16;;;;;;;36.22;12.77;;;16.60;99.90;;;;;;4181288;28;20199;-94
2022/09/11 06:32:18;;;;;;;36.67;13.77;;;16.60;99.90;;;;;;4181192;28;20171;-93
2022/09/11 06:34:20;;;;;;;28.23;14.32;;;16.70;99.90;;;;;;4164774;28;20249;-93
2022/09/11 06:36:25;;;;;;;55.20;13.90;;;16.70;99.90;;;;;;4164562;28;20625;-93
2022/09/11 06:38:28;;;;;;;25.85;13.43;;;16.80;99.90;;;;;;4164714;28;20257;-92
2022/09/11 06:40:29;;;;;;;73.00;14.25;;;16.80;99.90;;;;;;4164534;28;20196;-93
2022/09/11 06:42:30;;;;;;;52.70;16.02;;;16.80;99.90;;;;;;4181624;28;20230;-92
2022/09/11 06:44:34;;;;;;;102.75;14.77;;;16.80;99.90;;;;;;4165228;28;20565;-92
2022/09/11 06:46:36;;;;;;;171.25;15.73;;;16.90;99.90;;;;;;4180846;28;20254;-93
2022/09/11 06:48:38;;;;;;;135.90;16.60;;;17.00;99.90;;;;;;4181065;28;20175;-93
2022/09/11 06:50:40;;;;;;;77.43;16.10;;;17.10;99.90;;;;;;4180873;28;20183;-93
2022/09/11 06:52:41;;;;;;;88.65;15.07;;;17.20;99.90;;;;;;4166967;28;20762;-93
2022/09/11 06:54:56;;;;;;;77.65;15.63;;;17.20;99.90;;;;;;4175721;28;20215;-91
2022/09/11 06:56:57;;;;;;;147.27;14.73;;;17.10;99.90;;;;;;4184170;28;20161;-93
2022/09/11 06:58:58;;;;;;;91.93;15.25;;;17.40;99.90;;;;;;4168287;28;20176;-94
2022/09/11 07:01:14;;;;;;;178.15;15.43;;;17.30;99.90;;;;;;4165037;28;20798;-95
2022/09/11 07:03:16;;;;;;;68.20;13.75;;;17.30;99.90;;;;;;4181144;28;20297;-92
2022/09/11 07:05:17;;;;;;;51.53;14.13;;;17.40;99.90;;;;;;4180863;28;20632;-93
2022/09/11 07:07:22;;;;;;;55.88;13.70;;;17.60;99.90;;;;;;4166275;28;20263;-93
2022/09/11 07:09:22;;;;;;;70.05;12.57;;;17.50;99.90;;;;;;4184151;28;20664;-93
2022/09/11 07:11:31;;;;;;;72.30;12.88;;;17.70;99.90;;;;;;4167946;28;20623;-93
2022/09/11 07:13:33;;;;;;;46.28;12.82;;;17.80;99.90;;;;;;4178639;28;20195;-93
2022/09/11 07:15:35;;;;;;;47.63;12.60;;;17.90;99.90;;;;;;4167836;28;20176;-95
2022/09/11 07:17:36;;;;;;;51.90;12.98;;;18.20;99.90;;;;;;4167368;28;20179;-93
2022/09/11 07:19:38;;;;;;;44.03;11.80;;;18.20;99.90;;;;;;4183770;28;20206;-95
2022/09/11 07:21:40;;;;;;;67.78;12.23;;;18.40;99.90;;;;;;4167278;28;20199;-95
2022/09/11 07:23:45;;;;;;;93.68;13.98;;;18.70;99.90;;;;;;4167203;28;20279;-95
2022/09/11 07:25:48;;;;;;;78.35;13.32;;;18.70;99.90;;;;;;4167335;28;20319;-94
2022/09/11 07:27:50;;;;;;;184.25;14.02;;;18.90;99.90;;;;;;4167347;28;20168;-93
2022/09/11 07:29:52;;;;;;;58.30;13.82;;;19.20;99.90;;;;;;4167035;28;20164;-95
2022/09/11 07:31:56;;;;;;;19.17;13.63;;;19.40;99.90;;;;;;4183529;28;20237;-94
2022/09/11 07:34:00;;;;;;;74.63;13.75;;;19.20;99.90;;;;;;4183382;28;20174;-94
2022/09/11 07:36:25;;;;;;;34.05;14.45;;;19.40;99.90;;;;;;4167009;28;20175;-95
2022/09/11 07:38:33;;;;;;;31.60;14.07;;;19.40;99.90;;;;;;4167121;28;20248;-92
2022/09/11 07:40:35;;;;;;;23.80;14.23;;;19.30;99.90;;;;;;4166542;28;20242;-92
2022/09/11 07:42:38;;;;;;;146.20;15.63;;;19.30;99.90;;;;;;4167451;28;20212;-92
2022/09/11 07:44:51;;;;;;;97.18;15.15;;;19.40;99.90;;;;;;4167481;28;20271;-95
2022/09/11 07:46:57;;;;;;;73.55;14.30;;;19.70;99.90;;;;;;4167013;28;20187;-95
2022/09/11 07:49:06;;;;;;;22.17;15.23;;;19.70;99.90;;;;;;4167053;28;20168;-94
2022/09/11 07:51:18;;;;;;;24.77;14.77;;;19.70;99.90;;;;;;4166721;28;20199;-94
2022/09/11 07:54:05;;;;;;;62.90;14.75;;;19.70;99.90;;;;;;4184010;28;20191;-94
2022/09/11 07:56:17;;;;;;;23.83;14.38;;;20.10;99.90;;;;;;4161512;28;20180;-95
2022/09/11 07:58:38;;;;;;;41.60;13.75;;;20.10;99.90;;;;;;4183620;28;20236;-96
2022/09/11 08:01:04;;;;;;;74.07;13.30;;;19.90;99.90;;;;;;4183106;28;20192;-95
2022/09/11 08:03:05;;;;;;;27.67;13.60;;;19.80;99.90;;;;;;4183087;28;20231;-96
2022/09/11 08:06:05;;;;;;;24.92;13.00;;;19.70;99.90;;;;;;4183303;28;20163;-96
2022/09/11 08:08:25;;;;;;;30.23;13.98;;;19.70;99.90;;;;;;4118237;28;20591;-95
2022/09/11 08:10:52;;;;;;;34.80;14.35;;;20.10;99.90;;;;;;4122780;28;20190;-96
2022/09/11 08:13:18;;;;;;;23.33;12.75;;;20.20;99.90;;;;;;4155888;28;20545;-95
2022/09/11 08:15:33;;;;;;;28.48;13.52;;;20.30;99.90;;;;;;4183221;28;20267;-95
2022/09/11 08:18:00;;;;;;;30.98;13.90;;;20.00;99.90;;;;;;4182203;28;20178;-95
2022/09/11 08:20:57;;;;;;;24.48;13.35;;;20.00;99.90;;;;;;4182882;28;20172;-95
2022/09/11 08:23:04;;;;;;;48.15;13.98;;;19.80;99.90;;;;;;4160146;28;20219;-94
2022/09/11 08:25:53;;;;;;;36.90;14.00;;;19.80;99.90;;;;;;4176078;28;20623;-94
2022/09/11 08:28:35;;;;;;;25.17;14.65;;;20.20;99.90;;;;;;4182771;28;20275;-95
2022/09/11 08:31:12;;;;;;;24.23;14.30;;;20.30;99.90;;;;;;4182233;28;20211;-95
2022/09/11 08:33:34;;;;;;;16.05;13.23;;;19.90;99.90;;;;;;4162299;28;20176;-95
2022/09/11 08:38:46;;;;;;;20.80;12.85;;;19.70;99.90;;;;;;4164939;28;20259;-94
2022/09/11 08:41:00;;;;;;;45.22;12.95;;;19.50;99.90;;;;;;4182550;28;20533;-93
2022/09/11 08:43:50;;;;;;;36.70;13.75;;;19.80;99.90;;;;;;4182547;28;20218;-95
2022/09/11 08:46:32;;;;;;;16.45;14.45;;;20.20;99.90;;;;;;4167785;28;20223;-94
2022/09/11 08:49:07;;;;;;;29.38;15.13;;;20.40;99.90;;;;;;4116227;28;20210;-95
2022/09/11 08:51:18;;;;;;;16.95;14.57;;;20.40;99.90;;;;;;4161217;28;21473;-94
2022/09/11 08:53:31;;;;;;;;;;;;;;;;;;;;;
2022/09/11 08:55:42;;;;;;;18.20;14.00;;;20.30;99.90;;;;;;4182193;28;20302;-96
2022/09/11 08:58:53;;;;;;;23.58;15.95;;;20.40;99.90;;;;;;4182058;28;20190;-95
2022/09/11 09:01:35;;;;;;;19.02;15.65;;;20.30;99.90;;;;;;4150473;28;20645;-94
2022/09/11 09:04:24;;;;;;;;;;;;;;;;;;;;;
2022/09/11 09:07:20;;;;;;;24.77;16.63;;;21.00;99.90;;;;;;4182027;28;20267;-94
2022/09/11 09:09:48;;;;;;;23.35;16.20;;;21.20;99.90;;;;;;4132761;28;20173;-94
2022/09/11 09:12:01;;;;;;;21.20;14.98;;;21.00;99.90;;;;;;4132209;28;20209;-95
2022/09/11 09:14:13;;;;;;;17.70;15.75;;;20.80;99.90;;;;;;4144898;28;20180;-96
2022/09/11 09:16:34;;;;;;;15.80;14.13;;;20.70;99.90;;;;;;4182750;28;20198;-94
2022/09/11 09:19:08;;;;;;;20.77;14.80;;;20.40;99.90;;;;;;4168480;28;20192;-94
2022/09/11 09:22:07;;;;;;;16.17;13.80;;;20.80;99.90;;;;;;4202839;28;20270;-95
2022/09/11 09:24:43;;;;;;;18.08;15.00;;;20.70;99.90;;;;;;4143611;28;20198;-96
2022/09/11 09:27:47;;;;;;;17.65;15.38;;;21.00;99.90;;;;;;4182164;28;20191;-94
2022/09/11 09:30:08;;;;;;;17.63;15.30;;;21.00;99.90;;;;;;4180569;28;20195;-95
2022/09/11 09:32:31;;;;;;;18.13;15.13;;;20.90;99.90;;;;;;4181656;28;20205;-95
2022/09/11 09:35:01;;;;;;;19.13;15.38;;;21.00;99.90;;;;;;4181514;28;20623;-93
2022/09/11 09:37:34;;;;;;;17.67;15.77;;;21.00;99.90;;;;;;4165469;28;20185;-95
2022/09/11 09:39:49;;;;;;;17.90;15.73;;;21.10;99.90;;;;;;4182034;28;20186;-94
2022/09/11 09:42:31;;;;;;;18.20;15.85;;;21.20;99.90;;;;;;4181408;28;20202;-95
2022/09/11 09:45:15;;;;;;;17.33;14.63;;;21.80;99.90;;;;;;4165829;28;20187;-96
2022/09/11 09:47:42;;;;;;;;;;;;;;;;;;;;;
2022/09/11 09:49:56;;;;;;;15.75;14.10;;;22.20;99.90;;;;;;4181928;28;20600;-94
2022/09/11 09:52:17;;;;;;;18.90;13.75;;;22.90;99.90;;;;;;4181587;28;20521;-95
2022/09/11 09:54:32;;;;;;;15.88;14.20;;;23.40;99.90;;;;;;4181335;28;20636;-94
2022/09/11 09:56:38;;;;;;;25.33;15.70;;;23.40;99.90;;;;;;4180968;28;20544;-96
2022/09/11 09:58:56;;;;;;;15.88;14.07;;;23.70;99.90;;;;;;4181343;28;20262;-95
2022/09/11 10:01:34;;;;;;;16.25;13.88;;;23.60;99.90;;;;;;4181264;28;20257;-96
2022/09/11 10:03:50;;;;;;;19.92;14.88;;;23.70;99.90;;;;;;4180954;28;20302;-95
2022/09/11 10:05:59;;;;;;;19.88;15.10;;;24.10;99.90;;;;;;4164591;28;20179;-94
2022/09/11 10:08:24;;;;;;;17.30;13.85;;;23.80;99.90;;;;;;4165005;28;20183;-96
2022/09/11 10:10:27;;;;;;;22.38;14.40;;;23.80;99.90;;;;;;4161675;28;20668;-95
2022/09/11 10:12:31;;;;;;;16.25;13.20;;;23.90;99.90;;;;;;4181135;28;20172;-94
2022/09/11 10:14:40;;;;;;;18.00;14.70;;;24.20;99.90;;;;;;4181390;28;20206;-94
2022/09/11 10:16:46;;;;;;;20.23;16.83;;;24.30;99.90;;;;;;4181240;28;20196;-92
2022/09/11 10:18:47;;;;;;;19.17;15.55;;;24.50;99.90;;;;;;4181104;28;20175;-92
2022/09/11 10:20:48;;;;;;;18.00;15.10;;;23.90;99.90;;;;;;4181362;28;20191;-92
2022/09/11 10:22:50;;;;;;;18.95;15.52;;;23.80;99.90;;;;;;4164609;28;20207;-92
2022/09/11 10:25:14;;;;;;;19.83;16.60;;;23.70;99.90;;;;;;4164846;28;20175;-92
2022/09/11 10:27:15;;;;;;;19.95;16.85;;;23.50;99.90;;;;;;4164724;28;20180;-95
2022/09/11 10:29:25;;;;;;;24.33;16.55;;;23.50;99.90;;;;;;4181240;28;20209;-93
2022/09/11 10:31:28;;;;;;;23.52;18.77;;;23.70;99.90;;;;;;4164922;28;20219;-93
2022/09/11 10:33:32;;;;;;;23.48;18.23;;;23.40;99.90;;;;;;4164614;28;20210;-95
2022/09/11 10:35:34;;;;;;;21.63;17.10;;;23.50;99.90;;;;;;4164608;28;20636;-94
2022/09/11 10:37:38;;;;;;;20.38;17.15;;;23.80;99.90;;;;;;4180801;28;20164;-95
2022/09/11 10:39:45;;;;;;;19.52;15.95;;;23.80;99.90;;;;;;4180838;28;20174;-95
2022/09/11 10:41:53;;;;;;;19.38;15.35;;;23.60;99.90;;;;;;4183470;28;20211;-95
2022/09/11 10:44:03;;;;;;;20.10;16.75;;;23.80;99.90;;;;;;4184400;28;20674;-94
2022/09/11 10:46:24;;;;;;;19.27;15.35;;;23.80;99.90;;;;;;4184401;28;20651;-94
2022/09/11 10:48:25;;;;;;;18.60;16.55;;;24.10;99.90;;;;;;4184568;28;20301;-94
2022/09/11 10:50:28;;;;;;;19.40;15.25;;;24.00;99.90;;;;;;4184121;28;20199;-94
2022/09/11 10:52:45;;;;;;;17.23;13.25;;;24.30;99.90;;;;;;4184171;28;20174;-94
2022/09/11 10:55:08;;;;;;;20.73;14.40;;;24.50;99.90;;;;;;4167928;28;20255;-93
2022/09/11 10:57:28;;;;;;;19.80;13.68;;;24.30;99.90;;;;;;4184070;28;20598;-92
2022/09/11 10:59:34;;;;;;;18.70;15.38;;;24.10;99.90;;;;;;4184344;28;20670;-94
2022/09/11 11:01:34;;;;;;;16.92;14.05;;;24.10;99.90;;;;;;4184209;28;20202;-95
2022/09/11 11:03:40;;;;;;;21.13;14.60;;;23.80;99.90;;;;;;4183872;28;20467;-94